Victory — E5U2349 — position and weather

sailwx.info

Track history (hours):
 
Tides and Currents Weather Stations Pressure Air Temp Water Temp Dewpoint Dewpoint Depression Visibility Wind Speed Wind Dir Waves Ship Positions

Victory

Last reported at 2017-Jul-20 17:43 UTC. Time now 2017-Jul-22 06:33 UTC.
Position N 43°44' E 007°25'.

Length 51 m; draft 3 m.

Type: Pleasure craft. MMSI: 518399000.

Date/timePositionNaut miles runAvg speedWind from/ knotsBaromVisibWave heightAir tempDewpointWater temp
2017-Jul-20 17:43N 43°44' E 007°25'0 0.0
2017-Jul-20 16:13N 43°44' E 007°25'0 0.0
2017-Jul-20 15:55N 43°44' E 007°25'0 0.0
2017-Jul-20 15:22N 43°44' E 007°25'0 0.0
2017-Jul-20 11:46N 43°44' E 007°25'10 3.4
2017-Jul-20 08:52N 43°37' E 007°16'614.0
2017-Jul-20 08:25N 43°33' E 007°09'613.9
2017-Jul-20 08:00N 43°29' E 007°03'1514.4
2017-Jul-20 06:58N 43°21' E 006°46'510.3
2017-Jul-20 06:30N 43°18' E 006°41'3 3.6
2017-Jul-20 05:45N 43°17' E 006°37'0 0.0
2017-Jul-20 04:51N 43°17' E 006°37'0 0.0
2017-Jul-20 04:29N 43°17' E 006°37'0 0.0
2017-Jul-20 03:57N 43°17' E 006°37'4 0.3
2017-Jul-19 15:44N 43°13' E 006°40'0 0.0
2017-Jul-19 15:26N 43°13' E 006°40'0 0.0
2017-Jul-19 12:41N 43°13' E 006°40'0 0.0
2017-Jul-19 12:17N 43°13' E 006°40'0 0.0
2017-Jul-19 11:47N 43°13' E 006°40'0 0.0
2017-Jul-19 11:20N 43°13' E 006°40'0 0.0
2017-Jul-19 10:50N 43°13' E 006°40'0 0.0
2017-Jul-19 10:29N 43°13' E 006°40'1 2.5
2017-Jul-19 09:58N 43°14' E 006°41'4 0.3
2017-Jul-18 20:38N 43°17' E 006°37'0 0.1
2017-Jul-18 20:17N 43°17' E 006°37'0 0.0
2017-Jul-18 19:47N 43°17' E 006°37'9 0.2
2017-Jul-17 03:19N 43°16' E 006°50'814.3
2017-Jul-17 02:44N 43°20' E 007°00'314.3
2017-Jul-17 02:30N 43°22' E 007°04'2014.3
2017-Jul-17 01:06N 43°32' E 007°28'114.1
2017-Jul-17 01:00N 43°32' E 007°30'714.3
2017-Jul-17 00:30N 43°36' E 007°38'714.4
2017-Jul-17 00:00N 43°39' E 007°47'714.5
2017-Jul-16 23:30N 43°43' E 007°56'714.4
2017-Jul-16 23:00N 43°47' E 008°04'714.3
2017-Jul-16 22:30N 43°51' E 008°12'714.3
2017-Jul-16 21:59N 43°55' E 008°21'714.1
2017-Jul-16 21:30N 43°59' E 008°28'714.0
2017-Jul-16 21:00N 44°03' E 008°36'713.8
2017-Jul-16 20:31N 44°07' E 008°44'713.7
2017-Jul-16 20:00N 44°11' E 008°52'713.3
2017-Jul-16 19:30N 44°13' E 009°01'713.6
2017-Jul-16 19:00N 44°16' E 009°09'4 2.2
2017-Jul-16 17:09N 44°19' E 009°13'0 0.0
2017-Jul-16 16:57N 44°19' E 009°13'0 0.0
2017-Jul-16 15:39N 44°19' E 009°13'0 0.0
2017-Jul-16 15:15N 44°19' E 009°13'0 0.0
2017-Jul-16 15:00N 44°19' E 009°13'0 0.0
2017-Jul-16 14:30N 44°19' E 009°13'0 0.0
2017-Jul-16 13:51N 44°19' E 009°13'0 0.0
2017-Jul-16 11:23N 44°19' E 009°13'0 0.7
2017-Jul-16 10:59N 44°19' E 009°14'6 8.1
2017-Jul-16 10:17N 44°15' E 009°20'413.8
2017-Jul-16 10:00N 44°13' E 009°24'714.3
2017-Jul-16 09:30N 44°08' E 009°31'714.3
2017-Jul-16 09:00N 44°03' E 009°38'714.4
2017-Jul-16 08:30N 43°57' E 009°44'714.5
2017-Jul-16 08:00N 43°52' E 009°51'714.5
2017-Jul-16 07:30N 43°47' E 009°58'714.8
2017-Jul-16 07:00N 43°41' E 010°04'714.7
2017-Jul-16 06:30N 43°34' E 010°08'714.5
2017-Jul-16 06:00N 43°27' E 010°12'61 3.4
2017-Jul-15 12:03N 42°26' E 010°04'114.9
2017-Jul-15 12:01N 42°26' E 010°03'914.6
2017-Jul-15 11:24N 42°18' E 009°57'  
Track history (hours):
 
Tides and Currents Weather Stations Pressure Air Temp Water Temp Dewpoint Dewpoint Depression Visibility Wind Speed Wind Dir Waves Ship Positions

Victory

Last reported at 2017-Jul-20 17:43 UTC. Time now 2017-Jul-22 06:33 UTC.
Position N 43°44' E 007°25'.

Length 51 m; draft 3 m.

Type: Pleasure craft. MMSI: 518399000.

Date/timePositionNaut miles runAvg speedWind from/ knotsBaromVisibWave heightAir tempDewpointWater temp
2017-Jul-20 17:43N 43°44' E 007°25'0 0.0
2017-Jul-20 16:13N 43°44' E 007°25'0 0.0
2017-Jul-20 15:55N 43°44' E 007°25'0 0.0
2017-Jul-20 15:22N 43°44' E 007°25'0 0.0
2017-Jul-20 11:46N 43°44' E 007°25'10 3.4
2017-Jul-20 08:52N 43°37' E 007°16'614.0
2017-Jul-20 08:25N 43°33' E 007°09'613.9
2017-Jul-20 08:00N 43°29' E 007°03'1514.4
2017-Jul-20 06:58N 43°21' E 006°46'510.3
2017-Jul-20 06:30N 43°18' E 006°41'3 3.6
2017-Jul-20 05:45N 43°17' E 006°37'0 0.0
2017-Jul-20 04:51N 43°17' E 006°37'0 0.0
2017-Jul-20 04:29N 43°17' E 006°37'0 0.0
2017-Jul-20 03:57N 43°17' E 006°37'4 0.3
2017-Jul-19 15:44N 43°13' E 006°40'0 0.0
2017-Jul-19 15:26N 43°13' E 006°40'0 0.0
2017-Jul-19 12:41N 43°13' E 006°40'0 0.0
2017-Jul-19 12:17N 43°13' E 006°40'0 0.0
2017-Jul-19 11:47N 43°13' E 006°40'0 0.0
2017-Jul-19 11:20N 43°13' E 006°40'0 0.0
2017-Jul-19 10:50N 43°13' E 006°40'0 0.0
2017-Jul-19 10:29N 43°13' E 006°40'1 2.5
2017-Jul-19 09:58N 43°14' E 006°41'4 0.3
2017-Jul-18 20:38N 43°17' E 006°37'0 0.1
2017-Jul-18 20:17N 43°17' E 006°37'0 0.0
2017-Jul-18 19:47N 43°17' E 006°37'9 0.2
2017-Jul-17 03:19N 43°16' E 006°50'814.3
2017-Jul-17 02:44N 43°20' E 007°00'314.3
2017-Jul-17 02:30N 43°22' E 007°04'2014.3
2017-Jul-17 01:06N 43°32' E 007°28'114.1
2017-Jul-17 01:00N 43°32' E 007°30'714.3
2017-Jul-17 00:30N 43°36' E 007°38'714.4
2017-Jul-17 00:00N 43°39' E 007°47'714.5
2017-Jul-16 23:30N 43°43' E 007°56'714.4
2017-Jul-16 23:00N 43°47' E 008°04'714.3
2017-Jul-16 22:30N 43°51' E 008°12'714.3
2017-Jul-16 21:59N 43°55' E 008°21'714.1
2017-Jul-16 21:30N 43°59' E 008°28'714.0
2017-Jul-16 21:00N 44°03' E 008°36'713.8
2017-Jul-16 20:31N 44°07' E 008°44'713.7
2017-Jul-16 20:00N 44°11' E 008°52'713.3
2017-Jul-16 19:30N 44°13' E 009°01'713.6
2017-Jul-16 19:00N 44°16' E 009°09'4 2.2
2017-Jul-16 17:09N 44°19' E 009°13'0 0.0
2017-Jul-16 16:57N 44°19' E 009°13'0 0.0
2017-Jul-16 15:39N 44°19' E 009°13'0 0.0
2017-Jul-16 15:15N 44°19' E 009°13'0 0.0
2017-Jul-16 15:00N 44°19' E 009°13'0 0.0
2017-Jul-16 14:30N 44°19' E 009°13'0 0.0
2017-Jul-16 13:51N 44°19' E 009°13'0 0.0
2017-Jul-16 11:23N 44°19' E 009°13'0 0.7
2017-Jul-16 10:59N 44°19' E 009°14'6 8.1
2017-Jul-16 10:17N 44°15' E 009°20'413.8
2017-Jul-16 10:00N 44°13' E 009°24'714.3
2017-Jul-16 09:30N 44°08' E 009°31'714.3
2017-Jul-16 09:00N 44°03' E 009°38'714.4
2017-Jul-16 08:30N 43°57' E 009°44'714.5
2017-Jul-16 08:00N 43°52' E 009°51'714.5
2017-Jul-16 07:30N 43°47' E 009°58'714.8
2017-Jul-16 07:00N 43°41' E 010°04'714.7
2017-Jul-16 06:30N 43°34' E 010°08'714.5
2017-Jul-16 06:00N 43°27' E 010°12'61 3.4
2017-Jul-15 12:03N 42°26' E 010°04'114.9
2017-Jul-15 12:01N 42°26' E 010°03'914.6
2017-Jul-15 11:24N 42°18' E 009°57'  

Dump ship's entire track history